createdAt,value
2022-08-07T00:00:46.330Z,0.00
2022-08-07T00:02:36.165Z,0.00
2022-08-07T00:02:47.273Z,0.00
2022-08-07T00:03:47.276Z,0.00
2022-08-07T00:04:46.306Z,0.00
2022-08-07T00:05:46.436Z,0.00
2022-08-07T00:06:51.782Z,0.00
2022-08-07T00:07:47.224Z,0.00
2022-08-07T00:08:46.225Z,0.00
2022-08-07T00:10:04.734Z,0.00
2022-08-07T00:10:57.534Z,0.00
2022-08-07T00:11:54.180Z,0.00
2022-08-07T00:12:57.662Z,0.00
2022-08-07T00:13:47.180Z,0.00
2022-08-07T00:14:46.104Z,0.00
2022-08-07T00:15:46.802Z,0.00
2022-08-07T00:16:47.105Z,0.00
2022-08-07T00:17:46.106Z,0.00
2022-08-07T00:18:46.046Z,0.00
2022-08-07T00:20:02.643Z,0.00
2022-08-07T00:20:47.727Z,0.00
2022-08-07T00:21:56.445Z,0.00
2022-08-07T00:22:51.794Z,0.00
2022-08-07T00:23:47.554Z,0.00
2022-08-07T00:24:46.015Z,0.00
2022-08-07T00:25:59.096Z,0.00
2022-08-07T00:26:58.926Z,0.00
2022-08-07T00:27:53.550Z,0.00
2022-08-07T00:28:55.664Z,0.00
2022-08-07T00:29:46.900Z,0.00
2022-08-07T00:30:45.887Z,0.00
2022-08-07T00:31:45.859Z,0.00
2022-08-07T00:32:46.859Z,0.00
2022-08-07T00:33:47.809Z,0.00
2022-08-07T00:34:45.819Z,0.00
2022-08-07T00:35:49.684Z,0.00
2022-08-07T00:36:45.779Z,0.00
2022-08-07T00:37:47.996Z,0.00
2022-08-07T00:38:45.789Z,0.00
2022-08-07T00:39:45.794Z,0.00
2022-08-07T00:40:46.798Z,0.00
2022-08-07T00:41:53.777Z,0.00
2022-08-07T00:42:46.730Z,0.00
2022-08-07T00:44:00.547Z,0.00
2022-08-07T00:44:46.728Z,0.00
2022-08-07T00:45:46.482Z,0.00
2022-08-07T00:46:45.701Z,0.00
2022-08-07T00:48:08.176Z,0.00
2022-08-07T00:48:49.875Z,0.00
2022-08-07T00:50:20.123Z,0.00
2022-08-07T00:50:51.279Z,0.00
2022-08-07T00:51:57.197Z,0.00
2022-08-07T00:52:47.486Z,0.00
2022-08-07T00:53:50.095Z,0.00
2022-08-07T00:54:46.604Z,0.00
2022-08-07T00:56:00.853Z,0.00
2022-08-07T00:56:46.525Z,0.00
2022-08-07T00:57:55.282Z,0.00
2022-08-07T00:58:46.616Z,0.00
2022-08-07T00:59:45.443Z,0.00
2022-08-07T01:00:53.352Z,0.00
2022-08-07T01:01:46.485Z,0.00
2022-08-07T01:02:45.406Z,0.00
2022-08-07T01:03:55.765Z,0.00
2022-08-07T01:04:46.455Z,0.00
2022-08-07T01:05:51.690Z,0.00
2022-08-07T01:06:46.374Z,0.00
2022-08-07T01:07:45.377Z,0.00
2022-08-07T01:08:53.364Z,0.00
2022-08-07T01:10:05.156Z,0.00
2022-08-07T01:10:47.612Z,0.00
2022-08-07T01:12:09.722Z,0.00
2022-08-07T01:12:53.809Z,0.00
2022-08-07T01:13:54.374Z,0.00
2022-08-07T01:14:46.287Z,0.00
2022-08-07T01:16:05.388Z,0.00
2022-08-07T01:16:46.863Z,0.00
2022-08-07T01:17:45.257Z,0.00
2022-08-07T01:18:45.187Z,0.00
2022-08-07T01:19:54.472Z,0.00
2022-08-07T01:20:57.284Z,0.00
2022-08-07T01:21:46.657Z,0.00
2022-08-07T01:22:54.058Z,0.00
2022-08-07T01:23:46.710Z,0.00
2022-08-07T01:24:45.108Z,0.00
2022-08-07T01:25:55.121Z,0.00
2022-08-07T01:26:51.744Z,0.00
2022-08-07T01:27:51.331Z,0.00
2022-08-07T01:28:48.375Z,0.00
2022-08-07T01:29:45.039Z,0.00
2022-08-07T01:30:45.010Z,0.00
2022-08-07T01:31:48.244Z,0.00
2022-08-07T01:32:45.029Z,0.00
2022-08-07T01:33:55.212Z,0.00
2022-08-07T01:34:47.332Z,0.00
2022-08-07T01:35:53.807Z,0.00
2022-08-07T01:36:57.668Z,0.00
2022-08-07T01:37:45.947Z,0.00
2022-08-07T01:38:44.920Z,0.00
2022-08-07T01:39:46.484Z,0.00
2022-08-07T01:40:44.860Z,0.00
2022-08-07T01:41:55.260Z,0.00
2022-08-07T01:42:58.497Z,0.00
2022-08-07T01:43:45.842Z,0.00
2022-08-07T01:44:47.954Z,0.00
2022-08-07T01:45:46.780Z,0.00
2022-08-07T01:46:44.808Z,0.00
2022-08-07T01:48:20.088Z,0.00
2022-08-07T01:48:46.766Z,0.00
2022-08-07T01:49:44.772Z,0.00
2022-08-07T01:50:44.745Z,0.00
2022-08-07T01:52:01.647Z,0.00
2022-08-07T01:52:49.584Z,0.00
2022-08-07T01:54:06.249Z,0.00
2022-08-07T01:54:45.685Z,0.00
2022-08-07T01:55:44.677Z,0.00
2022-08-07T01:56:46.394Z,0.00
2022-08-07T01:58:06.788Z,0.00
2022-08-07T01:58:45.654Z,0.00
2022-08-07T01:59:45.235Z,0.00
2022-08-07T02:00:49.361Z,0.00
2022-08-07T02:02:01.994Z,0.00
2022-08-07T02:03:18.060Z,0.00
2022-08-07T02:03:50.393Z,0.00
2022-08-07T02:04:52.366Z,0.00
2022-08-07T02:05:58.503Z,0.00
2022-08-07T02:06:45.860Z,0.00
2022-08-07T02:07:50.113Z,0.00
2022-08-07T02:08:45.506Z,0.00
2022-08-07T02:09:58.457Z,0.00
2022-08-07T02:10:51.666Z,0.00
2022-08-07T02:12:02.690Z,0.00
2022-08-07T02:12:46.361Z,0.00
2022-08-07T02:13:56.637Z,0.00
2022-08-07T02:14:45.429Z,0.00
2022-08-07T02:15:44.397Z,0.00
2022-08-07T02:16:44.388Z,0.00
2022-08-07T02:17:49.620Z,0.00
2022-08-07T02:18:47.228Z,0.00
2022-08-07T02:20:05.247Z,0.00
2022-08-07T02:20:48.590Z,0.00
2022-08-07T02:21:56.555Z,0.00
2022-08-07T02:22:45.319Z,0.00
2022-08-07T02:23:44.723Z,0.00
2022-08-07T02:24:44.499Z,0.00
2022-08-07T02:26:26.549Z,0.00
2022-08-07T02:26:45.261Z,0.00
2022-08-07T02:27:44.262Z,0.00
2022-08-07T02:28:45.208Z,0.00
2022-08-07T02:29:53.980Z,0.00
2022-08-07T02:30:45.191Z,0.00
2022-08-07T02:31:44.180Z,0.00
2022-08-07T02:33:00.678Z,0.00
2022-08-07T02:34:01.665Z,0.00
2022-08-07T02:34:48.782Z,0.00
2022-08-07T02:36:29.683Z,0.00
2022-08-07T02:36:46.983Z,0.00
2022-08-07T02:37:44.409Z,0.00
2022-08-07T02:38:50.830Z,0.00
2022-08-07T02:40:02.019Z,0.00
2022-08-07T02:40:46.579Z,0.00
2022-08-07T02:41:50.696Z,0.00
2022-08-07T02:42:45.042Z,0.00
2022-08-07T02:43:48.932Z,0.00
2022-08-07T02:44:47.850Z,0.00
2022-08-07T02:45:59.296Z,0.00
2022-08-07T02:46:46.778Z,0.00
2022-08-07T02:47:49.219Z,0.00
2022-08-07T02:48:47.058Z,0.00
2022-08-07T02:49:58.092Z,0.00
2022-08-07T02:50:44.942Z,0.00
2022-08-07T02:51:51.959Z,0.00
2022-08-07T02:52:47.883Z,0.00
2022-08-07T02:53:43.886Z,0.00
2022-08-07T02:54:43.881Z,0.00
2022-08-07T02:56:03.891Z,0.00
2022-08-07T02:56:44.852Z,0.00
2022-08-07T02:57:43.854Z,0.00
2022-08-07T02:58:47.254Z,0.00
2022-08-07T02:59:43.803Z,0.00
2022-08-07T03:00:47.079Z,0.00
2022-08-07T03:01:47.054Z,0.00
2022-08-07T03:02:54.389Z,0.00
2022-08-07T03:03:49.815Z,0.00
2022-08-07T03:04:44.728Z,0.00
2022-08-07T03:05:43.757Z,0.00
2022-08-07T03:06:44.784Z,0.00
2022-08-07T03:08:04.899Z,0.00
2022-08-07T03:08:44.667Z,0.00
2022-08-07T03:09:47.233Z,0.00
2022-08-07T03:10:46.425Z,0.00
2022-08-07T03:11:52.691Z,0.00
2022-08-07T03:12:44.628Z,0.00
2022-08-07T03:13:49.443Z,0.00
2022-08-07T03:14:48.600Z,0.00
2022-08-07T03:15:55.867Z,0.00
2022-08-07T03:16:44.611Z,0.00
2022-08-07T03:17:52.914Z,0.00
2022-08-07T03:18:44.558Z,0.00
2022-08-07T03:19:43.548Z,0.00
2022-08-07T03:20:44.564Z,0.00
2022-08-07T03:21:50.307Z,0.00
2022-08-07T03:22:50.221Z,0.00
2022-08-07T03:24:18.462Z,0.00
2022-08-07T03:24:44.469Z,0.00
2022-08-07T03:25:43.440Z,0.00
2022-08-07T03:26:57.842Z,0.00
2022-08-07T03:27:59.384Z,0.00
2022-08-07T03:28:45.366Z,0.00
2022-08-07T03:29:46.117Z,0.00
2022-08-07T03:30:44.392Z,0.00
2022-08-07T03:31:46.359Z,5.62
2022-08-07T03:32:58.180Z,5.62
2022-08-07T03:33:44.374Z,5.62
2022-08-07T03:34:47.487Z,5.62
2022-08-07T03:35:50.271Z,5.62
2022-08-07T03:36:45.010Z,5.62
2022-08-07T03:37:46.370Z,5.62
2022-08-07T03:38:44.256Z,11.25
2022-08-07T03:39:59.674Z,11.25
2022-08-07T03:40:44.650Z,11.25
2022-08-07T03:41:47.491Z,11.25
2022-08-07T03:42:44.213Z,11.25
2022-08-07T03:43:56.822Z,16.88
2022-08-07T03:44:53.151Z,16.88
2022-08-07T03:45:47.927Z,16.88
2022-08-07T03:47:11.355Z,16.88
2022-08-07T03:47:45.131Z,22.50
2022-08-07T03:48:45.585Z,22.50
2022-08-07T03:49:52.156Z,22.50
2022-08-07T03:50:56.145Z,28.12
2022-08-07T03:51:47.904Z,28.12
2022-08-07T03:52:44.104Z,28.12
2022-08-07T03:54:01.930Z,28.12
2022-08-07T03:54:54.088Z,33.75
2022-08-07T03:55:57.854Z,33.75
2022-08-07T03:57:03.967Z,39.38
2022-08-07T03:58:34.773Z,39.38
2022-08-07T03:59:08.425Z,39.38
2022-08-07T03:59:46.593Z,45.00
2022-08-07T04:00:46.232Z,45.00
2022-08-07T04:01:43.308Z,45.00
2022-08-07T04:02:42.956Z,50.62
2022-08-07T04:03:53.650Z,50.62
2022-08-07T04:04:45.127Z,50.62
2022-08-07T04:05:45.709Z,56.25
2022-08-07T04:06:42.919Z,56.25
2022-08-07T04:07:45.211Z,61.88
2022-08-07T04:08:42.835Z,61.88
2022-08-07T04:09:45.143Z,67.50
2022-08-07T04:10:53.802Z,67.50
2022-08-07T04:12:27.091Z,73.12
2022-08-07T04:12:43.841Z,73.12
2022-08-07T04:14:10.775Z,73.12
2022-08-07T04:14:46.316Z,78.75
2022-08-07T04:15:43.780Z,84.38
2022-08-07T04:16:43.025Z,90.00
2022-08-07T04:18:30.756Z,90.00
2022-08-07T04:18:59.452Z,90.00
2022-08-07T04:19:51.886Z,95.62
2022-08-07T04:20:54.851Z,95.62
2022-08-07T04:21:58.948Z,95.62
2022-08-07T04:22:53.685Z,101.25
2022-08-07T04:24:07.428Z,106.88
2022-08-07T04:24:43.654Z,106.88
2022-08-07T04:25:42.616Z,112.50
2022-08-07T04:26:43.642Z,118.12
2022-08-07T04:27:44.132Z,112.50
2022-08-07T04:28:42.590Z,118.12
2022-08-07T04:29:57.215Z,118.12
2022-08-07T04:30:57.199Z,123.75
2022-08-07T04:32:03.230Z,129.38
2022-08-07T04:32:44.962Z,129.38
2022-08-07T04:33:42.506Z,129.38
2022-08-07T04:34:42.517Z,129.38
2022-08-07T04:35:42.512Z,135.00
2022-08-07T04:36:42.584Z,140.62
2022-08-07T04:38:01.137Z,140.62
2022-08-07T04:38:43.486Z,146.25
2022-08-07T04:39:48.013Z,146.25
2022-08-07T04:40:43.824Z,146.25
2022-08-07T04:41:43.459Z,151.88
2022-08-07T04:42:43.684Z,151.88
2022-08-07T04:44:10.648Z,151.88
2022-08-07T04:44:54.388Z,157.50
2022-08-07T04:46:00.348Z,157.50
2022-08-07T04:47:04.717Z,168.75
2022-08-07T04:48:02.036Z,174.38
2022-08-07T04:48:44.871Z,174.38
2022-08-07T04:49:42.290Z,180.00
2022-08-07T04:50:43.361Z,185.62
2022-08-07T04:51:43.442Z,191.25
2022-08-07T04:52:51.220Z,196.88
2022-08-07T04:54:01.538Z,202.50
2022-08-07T04:54:43.489Z,202.50
2022-08-07T04:58:10.347Z,219.38
2022-08-07T04:58:10.888Z,208.12
2022-08-07T04:58:24.121Z,213.75
2022-08-07T05:00:09.602Z,225.00
2022-08-07T05:00:43.249Z,225.00
2022-08-07T05:01:42.208Z,225.00
2022-08-07T05:02:43.534Z,225.00
2022-08-07T05:04:06.342Z,230.62
2022-08-07T05:04:43.936Z,236.25
2022-08-07T05:05:54.554Z,247.50
2022-08-07T05:06:51.800Z,253.12
2022-08-07T05:07:48.511Z,253.12
2022-08-07T05:08:59.696Z,264.38
2022-08-07T05:09:46.534Z,270.00
2022-08-07T05:10:42.054Z,264.38
2022-08-07T05:11:57.243Z,264.38
2022-08-07T05:12:51.520Z,270.00
2022-08-07T05:14:53.041Z,264.38
2022-08-07T05:14:59.119Z,264.38
2022-08-07T05:15:48.028Z,264.38
2022-08-07T05:16:43.863Z,264.38
2022-08-07T05:18:08.693Z,264.38
2022-08-07T05:18:43.591Z,258.75
2022-08-07T05:19:47.795Z,264.38
2022-08-07T05:20:42.899Z,275.62
2022-08-07T05:22:00.726Z,286.88
2022-08-07T05:22:43.361Z,281.25
2022-08-07T05:23:42.219Z,286.88
2022-08-07T05:24:41.873Z,281.25
2022-08-07T05:26:11.203Z,270.00
2022-08-07T05:26:43.039Z,264.38
2022-08-07T05:28:16.495Z,275.62
2022-08-07T05:28:50.045Z,275.62
2022-08-07T05:29:50.938Z,281.25
2022-08-07T05:30:42.924Z,281.25
2022-08-07T05:31:51.172Z,286.88
2022-08-07T05:32:43.084Z,281.25
2022-08-07T05:33:51.184Z,275.62
2022-08-07T05:34:43.179Z,270.00
2022-08-07T05:35:42.519Z,270.00
2022-08-07T05:36:43.783Z,258.75
2022-08-07T05:37:45.931Z,253.12
2022-08-07T05:38:59.954Z,253.12
2022-08-07T05:40:06.551Z,247.50
2022-08-07T05:40:50.575Z,247.50
2022-08-07T05:42:02.472Z,253.12
2022-08-07T05:42:42.531Z,264.38
2022-08-07T05:43:49.532Z,270.00
2022-08-07T05:44:53.010Z,264.38
2022-08-07T05:45:47.543Z,270.00
2022-08-07T05:46:42.894Z,264.38
2022-08-07T05:48:02.095Z,264.38
2022-08-07T05:48:58.293Z,270.00
2022-08-07T05:49:42.474Z,275.62
2022-08-07T05:50:42.852Z,270.00
2022-08-07T05:51:42.248Z,286.88
2022-08-07T05:52:41.385Z,315.00
2022-08-07T05:54:14.106Z,365.62
2022-08-07T05:54:53.410Z,416.25
2022-08-07T05:56:03.495Z,444.38
2022-08-07T05:56:42.416Z,466.88
2022-08-07T05:57:42.237Z,466.88
2022-08-07T05:58:41.366Z,466.88
2022-08-07T05:59:57.575Z,466.88
2022-08-07T06:00:42.326Z,444.38
2022-08-07T06:01:41.362Z,455.62
2022-08-07T06:02:41.725Z,461.25
2022-08-07T06:03:53.770Z,455.62
2022-08-07T06:04:42.416Z,444.38
2022-08-07T06:05:42.229Z,433.12
2022-08-07T06:06:46.146Z,444.38
2022-08-07T06:08:14.351Z,416.25
2022-08-07T06:08:42.673Z,399.38
2022-08-07T06:10:04.605Z,399.38
2022-08-07T06:10:42.576Z,393.75
2022-08-07T06:11:41.129Z,393.75
2022-08-07T06:12:41.078Z,393.75
2022-08-07T06:14:12.182Z,393.75
2022-08-07T06:14:43.043Z,388.12
2022-08-07T06:15:42.941Z,388.12
2022-08-07T06:16:41.100Z,388.12
2022-08-07T06:17:41.201Z,388.12
2022-08-07T06:18:43.063Z,388.12
2022-08-07T06:19:51.796Z,388.12
2022-08-07T06:20:50.730Z,388.12
2022-08-07T06:22:15.726Z,388.12
2022-08-07T06:22:42.003Z,393.75
2022-08-07T06:24:37.242Z,393.75
2022-08-07T06:24:53.244Z,393.75
2022-08-07T06:25:54.602Z,393.75
2022-08-07T06:26:41.936Z,393.75
2022-08-07T06:27:59.718Z,393.75
2022-08-07T06:28:41.916Z,393.75
2022-08-07T06:29:40.898Z,399.38
2022-08-07T06:30:45.643Z,399.38
2022-08-07T06:31:49.434Z,399.38
2022-08-07T06:32:41.874Z,399.38
2022-08-07T06:33:40.874Z,399.38
2022-08-07T06:34:45.154Z,399.38
2022-08-07T06:35:47.723Z,405.00
2022-08-07T06:36:41.897Z,405.00
2022-08-07T06:37:43.393Z,405.00
2022-08-07T06:38:58.540Z,405.00
2022-08-07T06:40:13.149Z,410.62
2022-08-07T06:40:45.972Z,410.62
2022-08-07T06:42:02.351Z,416.25
2022-08-07T06:42:42.115Z,416.25
2022-08-07T06:43:46.227Z,421.88
2022-08-07T06:44:41.728Z,421.88
2022-08-07T06:45:40.686Z,427.50
2022-08-07T06:46:40.732Z,427.50
2022-08-07T06:47:48.163Z,433.12
2022-08-07T06:48:44.498Z,433.12
2022-08-07T06:49:50.956Z,438.75
2022-08-07T06:50:43.234Z,450.00
2022-08-07T06:51:49.433Z,461.25
2022-08-07T06:52:42.462Z,483.75
2022-08-07T06:55:30.202Z,534.38
2022-08-07T06:55:33.206Z,680.62
2022-08-07T06:55:53.899Z,950.62
2022-08-07T06:56:48.487Z,1141.88
2022-08-07T06:57:48.377Z,1237.50
2022-08-07T07:00:12.291Z,1276.88
2022-08-07T07:00:13.371Z,1260.00
2022-08-07T07:00:42.466Z,1265.62
2022-08-07T07:01:44.001Z,1265.62
2022-08-07T07:02:53.516Z,1254.38
2022-08-07T07:03:49.089Z,1254.38
2022-08-07T07:04:54.728Z,1310.62
2022-08-07T07:06:02.706Z,1276.88
2022-08-07T07:06:57.588Z,1316.25
2022-08-07T07:07:58.665Z,1338.75
2022-08-07T07:08:46.785Z,1327.50
2022-08-07T07:09:41.941Z,1355.62
2022-08-07T07:10:54.714Z,1400.62
2022-08-07T07:12:07.847Z,1389.38
2022-08-07T07:12:48.421Z,1417.50
2022-08-07T07:13:58.760Z,1423.12
2022-08-07T07:14:41.312Z,1406.25
2022-08-07T07:15:40.416Z,1428.75
2022-08-07T07:16:50.663Z,1456.88
2022-08-07T07:17:45.380Z,1490.62
2022-08-07T07:18:47.856Z,1468.12
2022-08-07T07:37:21.510Z,1755.00
2022-08-07T07:37:45.564Z,1738.12
2022-08-07T07:38:41.693Z,1704.38
2022-08-07T07:39:52.168Z,1726.88
2022-08-07T07:40:41.688Z,1783.12
2022-08-07T07:42:02.255Z,1771.88
2022-08-07T07:42:41.858Z,1783.12
2022-08-07T07:44:14.244Z,1856.25
2022-08-07T07:44:41.582Z,1923.75
2022-08-07T07:46:39.872Z,1895.62
2022-08-07T07:46:55.690Z,1923.75
2022-08-07T07:47:51.993Z,1935.00
2022-08-07T07:48:41.502Z,1963.12
2022-08-07T07:50:36.679Z,2019.38
2022-08-07T07:50:41.650Z,2047.50
2022-08-07T07:51:58.066Z,1991.25
2022-08-07T07:52:41.890Z,2025.00
2022-08-07T07:53:50.348Z,2070.00
2022-08-07T07:54:50.761Z,2081.25
2022-08-07T07:55:45.671Z,2160.00
2022-08-07T07:56:41.566Z,2103.75
2022-08-07T07:57:50.554Z,2053.12
2022-08-07T07:58:41.747Z,2120.62
2022-08-07T07:59:52.784Z,2137.50
2022-08-07T08:00:45.752Z,2115.00
2022-08-07T08:02:03.465Z,2126.25
2022-08-07T08:03:04.537Z,2126.25
2022-08-07T08:04:06.496Z,2160.00
2022-08-07T08:04:41.398Z,2210.62
2022-08-07T08:05:54.131Z,2199.38
2022-08-07T08:06:48.168Z,2221.88
2022-08-07T08:07:42.497Z,2244.38
2022-08-07T08:08:41.961Z,2109.38
2022-08-07T08:09:52.386Z,2103.75
2022-08-07T08:10:41.247Z,2210.62
2022-08-07T08:11:59.835Z,2278.12
2022-08-07T08:12:52.285Z,2227.50
2022-08-07T08:29:12.176Z,2475.00
2022-08-07T08:29:54.237Z,2548.12
2022-08-07T08:30:51.389Z,2503.12
2022-08-07T08:32:17.451Z,2559.38
2022-08-07T08:32:48.761Z,2610.00
2022-08-07T08:33:49.431Z,2548.12
2022-08-07T08:34:45.377Z,2525.62
2022-08-07T08:35:50.984Z,2570.62
2022-08-07T08:36:46.279Z,2587.50
2022-08-07T08:38:01.185Z,2615.62
2022-08-07T08:38:45.262Z,2643.75
2022-08-07T08:39:58.183Z,2671.88
2022-08-07T08:40:46.864Z,2638.12
2022-08-07T08:41:58.297Z,2604.38
2022-08-07T08:42:45.252Z,2694.38
2022-08-07T08:43:55.946Z,2649.38
2022-08-07T08:44:45.911Z,2649.38
2022-08-07T08:46:00.583Z,2688.75
2022-08-07T08:46:45.942Z,2716.88
2022-08-07T08:47:52.318Z,2728.12
2022-08-07T08:48:45.334Z,2745.00
2022-08-07T08:49:46.378Z,2722.50
2022-08-07T08:50:44.115Z,2705.62
2022-08-07T08:52:00.782Z,2638.12
2022-08-07T08:52:53.716Z,2581.88
2022-08-07T08:53:45.875Z,2778.75
2022-08-07T08:54:44.108Z,2733.75
2022-08-07T08:55:54.868Z,2722.50
2022-08-07T08:56:47.498Z,2778.75
2022-08-07T08:57:45.789Z,2745.00
2022-08-07T08:58:44.009Z,2829.38
2022-08-07T08:59:48.062Z,2908.12
2022-08-07T09:00:48.717Z,2986.88
2022-08-07T09:01:49.054Z,2981.25
2022-08-07T09:02:46.178Z,2840.62
2022-08-07T09:03:47.610Z,2655.00
2022-08-07T09:04:43.920Z,2767.50
2022-08-07T09:05:43.892Z,2885.62
2022-08-07T09:06:47.856Z,2958.75
2022-08-07T09:07:46.415Z,3076.88
2022-08-07T09:08:46.845Z,3138.75
2022-08-07T09:09:44.302Z,3076.88
2022-08-07T09:10:44.396Z,3138.75
2022-08-07T09:11:55.583Z,3116.25
2022-08-07T09:12:53.111Z,3015.00
2022-08-07T09:13:44.881Z,2981.25
2022-08-07T09:14:50.686Z,3088.12
2022-08-07T09:16:22.882Z,3037.50
2022-08-07T09:16:45.611Z,3082.50
2022-08-07T09:17:59.677Z,3273.75
2022-08-07T09:18:47.261Z,3223.12
2022-08-07T09:19:53.033Z,3172.50
2022-08-07T09:20:58.651Z,3121.88
2022-08-07T09:22:10.393Z,2874.38
2022-08-07T09:24:31.770Z,2868.75
2022-08-07T09:24:35.109Z,3048.75
2022-08-07T09:24:58.893Z,2986.88
2022-08-07T09:25:54.371Z,3076.88
2022-08-07T09:26:47.788Z,3020.62
2022-08-07T09:27:59.641Z,2885.62
2022-08-07T09:30:01.390Z,2953.12
2022-08-07T09:30:04.471Z,2885.62
2022-08-07T09:30:46.717Z,3048.75
2022-08-07T09:31:48.326Z,3093.75
2022-08-07T09:32:44.652Z,3105.00
2022-08-07T09:33:56.528Z,3245.62
2022-08-07T09:34:44.846Z,3189.38
2022-08-07T09:36:04.741Z,3200.62
2022-08-07T09:36:46.728Z,3082.50
2022-08-07T09:37:53.461Z,2981.25
2022-08-07T09:38:49.925Z,3138.75
2022-08-07T09:39:55.369Z,3234.38
2022-08-07T09:40:44.539Z,3234.38
2022-08-07T09:41:59.166Z,3110.62
2022-08-07T09:42:45.487Z,3234.38
2022-08-07T09:44:06.287Z,3200.62
2022-08-07T09:44:58.534Z,3217.50
2022-08-07T09:47:24.304Z,3268.12
2022-08-07T09:47:51.623Z,3256.88
2022-08-07T09:47:58.829Z,2334.38
2022-08-07T09:48:55.879Z,3510.00
2022-08-07T09:50:02.932Z,3521.25
2022-08-07T09:50:44.529Z,3076.88
2022-08-07T09:52:16.875Z,3408.75
2022-08-07T09:52:44.772Z,3515.62
2022-08-07T09:53:48.839Z,3538.12
2022-08-07T09:54:44.449Z,2520.00
2022-08-07T09:56:03.341Z,1170.00
2022-08-07T09:56:44.224Z,3549.38
2022-08-07T09:57:46.535Z,3819.38
2022-08-07T09:58:43.354Z,3515.62
2022-08-07T10:00:00.284Z,1006.88
2022-08-07T10:00:44.915Z,911.25
2022-08-07T10:01:52.324Z,1029.38
2022-08-07T10:02:53.788Z,1119.38
2022-08-07T10:04:05.963Z,3830.62
2022-08-07T10:04:46.198Z,3813.75
2022-08-07T10:06:00.257Z,3892.50
2022-08-07T10:06:49.213Z,1597.50
2022-08-07T10:07:52.586Z,3943.12
2022-08-07T10:08:44.078Z,4111.88
2022-08-07T10:10:00.620Z,4050.00
2022-08-07T10:11:08.799Z,3858.75
2022-08-07T10:12:00.969Z,3813.75
2022-08-07T10:12:52.607Z,1001.25
2022-08-07T10:13:58.337Z,826.88
2022-08-07T10:14:44.038Z,832.50
2022-08-07T10:15:44.878Z,877.50
2022-08-07T10:16:43.206Z,1046.25
2022-08-07T10:18:01.158Z,4078.12
2022-08-07T10:18:44.078Z,4230.00
2022-08-07T10:19:42.945Z,1507.50
2022-08-07T10:20:44.454Z,1417.50
2022-08-07T10:22:15.036Z,3937.50
2022-08-07T10:22:45.346Z,3976.88
2022-08-07T10:24:06.443Z,2716.88
2022-08-07T10:24:44.105Z,1046.25
2022-08-07T10:25:43.642Z,950.62
2022-08-07T10:26:44.219Z,1980.00
2022-08-07T10:27:46.612Z,973.12
2022-08-07T10:28:43.448Z,905.62
2022-08-07T10:29:46.022Z,1771.88
2022-08-07T10:30:43.777Z,3667.50
2022-08-07T10:31:45.181Z,4072.50
2022-08-07T10:32:52.555Z,4016.25
2022-08-07T10:34:06.082Z,4061.25
2022-08-07T10:34:45.151Z,4005.00
2022-08-07T10:35:56.374Z,4044.38
2022-08-07T10:36:45.607Z,4106.25
2022-08-07T10:38:00.928Z,4066.88
2022-08-07T10:38:48.755Z,3892.50
2022-08-07T10:40:03.471Z,3487.50
2022-08-07T10:40:43.653Z,4230.00
2022-08-07T10:41:46.865Z,984.38
2022-08-07T10:42:43.644Z,905.62
2022-08-07T10:43:42.894Z,810.00
2022-08-07T10:44:45.162Z,4038.75
2022-08-07T10:45:44.784Z,3926.25
2022-08-07T10:46:43.619Z,3993.75
2022-08-07T10:47:53.339Z,4072.50
2022-08-07T10:48:44.224Z,4078.12
2022-08-07T10:49:49.647Z,3127.50
2022-08-07T10:50:44.882Z,3847.50
2022-08-07T10:52:01.553Z,1440.00
2022-08-07T10:52:51.384Z,1130.62
2022-08-07T10:53:44.936Z,4061.25
2022-08-07T10:54:42.471Z,4111.88
2022-08-07T10:55:43.460Z,4269.38
2022-08-07T10:56:42.510Z,4179.38
2022-08-07T10:57:43.073Z,3982.50
2022-08-07T10:58:42.432Z,3954.38
2022-08-07T10:59:47.513Z,3870.00
2022-08-07T11:00:50.178Z,4078.12
2022-08-07T11:01:51.490Z,4269.38
2022-08-07T11:02:48.851Z,4021.88
2022-08-07T11:03:54.845Z,3785.62
2022-08-07T11:04:43.439Z,3796.88
2022-08-07T11:11:29.468Z,3639.38
2022-08-07T11:12:31.977Z,3735.00
2022-08-07T11:14:43.988Z,3886.88
2022-08-07T11:14:45.668Z,4027.50
2022-08-07T11:15:31.439Z,3718.12
2022-08-07T11:16:30.506Z,3414.38
2022-08-07T11:21:51.698Z,3504.38
2022-08-07T11:22:46.127Z,3476.25
2022-08-07T11:23:45.414Z,3487.50
2022-08-07T11:24:45.440Z,4111.88
2022-08-07T11:25:49.894Z,3780.00
2022-08-07T11:26:50.107Z,3937.50
2022-08-07T11:28:01.341Z,4263.75
2022-08-07T11:28:44.577Z,1153.12
2022-08-07T11:29:48.297Z,1215.00
2022-08-07T11:30:44.499Z,1136.25
2022-08-07T11:31:45.005Z,1192.50
2022-08-07T11:32:43.619Z,5242.50
2022-08-07T11:33:59.266Z,5208.75
2022-08-07T11:34:44.476Z,5085.00
2022-08-07T11:36:00.251Z,5231.25
2022-08-07T11:36:44.461Z,5484.38
2022-08-07T11:37:57.872Z,5186.25
2022-08-07T11:38:50.612Z,4803.75
2022-08-07T11:39:59.912Z,4528.12
2022-08-07T11:40:45.286Z,4235.62
2022-08-07T11:42:01.613Z,4140.00
2022-08-07T11:42:44.382Z,2008.12
2022-08-07T11:44:11.448Z,3453.75
2022-08-07T11:44:52.773Z,3971.25
2022-08-07T11:45:53.361Z,3436.88
2022-08-07T11:46:44.292Z,2666.25
2022-08-07T11:47:53.593Z,1710.00
2022-08-07T11:48:58.900Z,1428.75
2022-08-07T11:50:11.451Z,1248.75
2022-08-07T11:50:57.371Z,1226.25
2022-08-07T11:51:44.966Z,1496.25
2022-08-07T11:52:43.289Z,2086.88
2022-08-07T11:54:00.626Z,1456.88
2022-08-07T11:54:46.322Z,4876.88
2022-08-07T11:56:09.553Z,1383.75
2022-08-07T11:56:44.651Z,1501.88
2022-08-07T11:58:00.092Z,1355.62
2022-08-07T11:58:44.199Z,1288.12
2022-08-07T12:00:12.090Z,1248.75
2022-08-07T12:00:48.869Z,1237.50
2022-08-07T12:01:59.851Z,1260.00
2022-08-07T12:02:49.786Z,1271.25
2022-08-07T12:03:45.938Z,1265.62
2022-08-07T12:04:43.209Z,1260.00
2022-08-07T12:05:48.959Z,1254.38
2022-08-07T12:06:51.654Z,1271.25
2022-08-07T12:07:44.255Z,1310.62
2022-08-07T12:08:43.985Z,1333.12
2022-08-07T12:09:43.388Z,1395.00
2022-08-07T12:10:42.964Z,1541.25
2022-08-07T12:11:43.422Z,1423.12
2022-08-07T12:12:43.943Z,1423.12
2022-08-07T12:13:47.705Z,1496.25
2022-08-07T12:14:43.947Z,4820.62
2022-08-07T12:16:05.646Z,4376.25
2022-08-07T12:16:43.893Z,4421.25
2022-08-07T12:17:58.846Z,4460.62
2022-08-07T12:18:45.211Z,4252.50
2022-08-07T12:20:03.145Z,4359.38
2022-08-07T12:20:44.232Z,4539.38
2022-08-07T12:22:35.781Z,4556.25
2022-08-07T12:22:46.939Z,3735.00
2022-08-07T12:24:07.741Z,1546.88
2022-08-07T12:24:43.850Z,1147.50
2022-08-07T12:26:03.084Z,1102.50
2022-08-07T12:26:46.825Z,1091.25
2022-08-07T12:28:08.789Z,1125.00
2022-08-07T12:28:44.750Z,1215.00
2022-08-07T12:29:42.766Z,1389.38
2022-08-07T12:30:46.957Z,1451.25
2022-08-07T12:32:01.940Z,1411.88
2022-08-07T12:32:43.900Z,1456.88
2022-08-07T12:33:56.122Z,1558.12
2022-08-07T12:34:49.112Z,1895.62
2022-08-07T12:35:48.219Z,2846.25
2022-08-07T12:36:43.699Z,4494.38
2022-08-07T12:38:09.066Z,4443.75
2022-08-07T12:38:47.500Z,4415.62
2022-08-07T12:39:50.620Z,4336.88
2022-08-07T12:40:47.740Z,4275.00
2022-08-07T12:41:51.462Z,4201.88
2022-08-07T12:42:55.091Z,4280.62
2022-08-07T12:44:01.850Z,4151.25
2022-08-07T12:44:45.159Z,4168.12
2022-08-07T12:45:42.498Z,4421.25
2022-08-07T12:46:42.904Z,4224.38
2022-08-07T12:47:42.651Z,4111.88
2022-08-07T12:48:52.848Z,4173.75
2022-08-07T12:49:51.973Z,4218.75
2022-08-07T12:50:49.459Z,4297.50
2022-08-07T12:51:51.070Z,4224.38
2022-08-07T12:52:46.331Z,3870.00
2022-08-07T12:54:03.418Z,3841.88
2022-08-07T12:54:43.394Z,3982.50
2022-08-07T12:56:02.331Z,2953.12
2022-08-07T12:56:43.692Z,1440.00
2022-08-07T12:58:01.074Z,1569.38
2022-08-07T13:00:50.201Z,4185.00
2022-08-07T13:01:45.578Z,4196.25
2022-08-07T13:02:47.243Z,4050.00
2022-08-07T13:04:02.528Z,4095.00
2022-08-07T13:05:01.005Z,4218.75
2022-08-07T13:06:03.198Z,4095.00
2022-08-07T13:07:00.582Z,4061.25
2022-08-07T13:08:14.598Z,4117.50
2022-08-07T13:08:45.170Z,3678.75
2022-08-07T13:10:29.104Z,1293.75
2022-08-07T13:10:52.234Z,2199.38
2022-08-07T13:12:02.428Z,1389.38
2022-08-07T13:12:45.017Z,1878.75
2022-08-07T13:13:47.823Z,3841.88
2022-08-07T13:14:50.998Z,3307.50
2022-08-07T13:15:45.094Z,2840.62
2022-08-07T13:17:04.990Z,3217.50
2022-08-07T13:17:44.299Z,4050.00
2022-08-07T13:18:44.455Z,3791.25